Terminal Aerodrome Forecast
Issued by NWS

Home | Current Version | Previous Version | Text Only | Print | Product List | Glossary On
Versions: 1 2 3 4 5 6 7 8 9 10 11 12 13 14 15
000
FTUS42 KTBW 241735
TAFPIE
TAF
KPIE 241735Z 2418/2518 08008KT P6SM SCT040 SCT250
     FM241900 11008KT P6SM VCTS BKN040CB BKN100
      TEMPO 2419/2423 VRB15G25KT 4SM TSRA BKN025CB
     FM250000 07008KT P6SM SCT025 BKN050 BKN100
     FM250300 10012G18KT P6SM SCT050 SCT100 BKN250
     FM250800 10008KT P6SM FEW025 FEW250=

USA.gov is the U.S. government's official web portal to all federal, state and local government web resources and services.